KFAM/FAM METAR and TAF weather

Enter ICAO airport designator
Station Type Date Time Source
KFAM METAR 2019/10/14 04:56 UTC NOAA

KFAM 140456Z AUTO 00000KT 10SM CLR 07/04 A3004 RMK AO2 SLP180 T00720039


Station Type Date Time Source
KFAM Decoded METAR 2019/10/14 04:56 UTC NOAA

Farmington Airport, MO, United States (KFAM) 37-46N 090-26W
Oct 14, 2019 - 12:56 AM EDT / 2019.10.14 0456 UTC
Wind: Calm:0
Visibility: 10 mile(s):0
Sky conditions: clear
Temperature: 45.0 F (7.2 C)
Dew Point: 39.0 F (3.9 C)
Relative Humidity: 79%
Pressure (altimeter): 30.04 in. Hg (1017 hPa)
ob: KFAM 140456Z AUTO 00000KT 10SM CLR 07/04 A3004 RMK AO2 SLP180 T00720039
cycle: 5

Station Type Date Time Source
KFAM TAF UTC NOAA

Error!

Example: see airport list